sensor_id;sensor_type;location;lat;lon;timestamp;P1;durP1;ratioP1;P2;durP2;ratioP2
72087;SDS011;59961;50.232;8.616;2023-04-25T00:01:27;7.15;;;3.78;;
72087;SDS011;59961;50.232;8.616;2023-04-25T00:03:52;8.17;;;3.80;;
72087;SDS011;59961;50.232;8.616;2023-04-25T00:06:17;7.05;;;3.40;;
72087;SDS011;59961;50.232;8.616;2023-04-25T00:08:42;8.50;;;4.17;;
72087;SDS011;59961;50.232;8.616;2023-04-25T00:11:08;7.90;;;4.10;;
72087;SDS011;59961;50.232;8.616;2023-04-25T00:13:33;7.70;;;3.83;;
72087;SDS011;59961;50.232;8.616;2023-04-25T00:15:58;6.73;;;3.80;;
72087;SDS011;59961;50.232;8.616;2023-04-25T00:18:23;7.70;;;3.60;;
72087;SDS011;59961;50.232;8.616;2023-04-25T00:20:49;7.10;;;3.80;;
72087;SDS011;59961;50.232;8.616;2023-04-25T00:23:15;9.70;;;3.87;;
72087;SDS011;59961;50.232;8.616;2023-04-25T00:25:42;7.27;;;3.83;;
72087;SDS011;59961;50.232;8.616;2023-04-25T00:28:07;7.47;;;3.57;;
72087;SDS011;59961;50.232;8.616;2023-04-25T00:30:32;6.20;;;3.40;;
72087;SDS011;59961;50.232;8.616;2023-04-25T00:32:57;8.67;;;4.43;;
72087;SDS011;59961;50.232;8.616;2023-04-25T00:35:23;7.80;;;4.10;;
72087;SDS011;59961;50.232;8.616;2023-04-25T00:37:48;7.53;;;3.67;;
72087;SDS011;59961;50.232;8.616;2023-04-25T00:40:13;8.23;;;4.40;;
72087;SDS011;59961;50.232;8.616;2023-04-25T00:42:38;9.60;;;4.40;;
72087;SDS011;59961;50.232;8.616;2023-04-25T00:45:05;6.90;;;3.75;;
72087;SDS011;59961;50.232;8.616;2023-04-25T00:47:30;7.87;;;3.70;;
72087;SDS011;59961;50.232;8.616;2023-04-25T00:49:56;7.18;;;3.83;;
72087;SDS011;59961;50.232;8.616;2023-04-25T00:52:21;9.75;;;4.22;;
72087;SDS011;59961;50.232;8.616;2023-04-25T00:54:46;7.63;;;3.80;;
72087;SDS011;59961;50.232;8.616;2023-04-25T00:57:11;9.70;;;4.47;;
72087;SDS011;59961;50.232;8.616;2023-04-25T00:59:37;9.27;;;4.60;;
72087;SDS011;59961;50.232;8.616;2023-04-25T01:02:03;8.85;;;4.22;;
72087;SDS011;59961;50.232;8.616;2023-04-25T01:04:28;8.17;;;4.43;;
72087;SDS011;59961;50.232;8.616;2023-04-25T01:06:54;10.53;;;4.27;;
72087;SDS011;59961;50.232;8.616;2023-04-25T01:09:19;8.60;;;3.50;;
72087;SDS011;59961;50.232;8.616;2023-04-25T01:11:45;6.30;;;3.20;;
72087;SDS011;59961;50.232;8.616;2023-04-25T01:14:10;7.60;;;3.93;;
72087;SDS011;59961;50.232;8.616;2023-04-25T01:16:35;7.57;;;3.87;;
72087;SDS011;59961;50.232;8.616;2023-04-25T01:19:01;8.55;;;3.63;;
72087;SDS011;59961;50.232;8.616;2023-04-25T01:21:30;7.30;;;3.97;;
72087;SDS011;59961;50.232;8.616;2023-04-25T01:23:55;7.90;;;3.90;;
72087;SDS011;59961;50.232;8.616;2023-04-25T01:26:22;8.80;;;3.80;;
72087;SDS011;59961;50.232;8.616;2023-04-25T01:28:47;8.67;;;3.70;;
72087;SDS011;59961;50.232;8.616;2023-04-25T01:31:13;9.50;;;3.63;;
72087;SDS011;59961;50.232;8.616;2023-04-25T01:33:39;10.07;;;3.70;;
72087;SDS011;59961;50.232;8.616;2023-04-25T01:36:04;6.63;;;3.43;;
72087;SDS011;59961;50.232;8.616;2023-04-25T01:38:29;8.03;;;3.23;;
72087;SDS011;59961;50.232;8.616;2023-04-25T01:40:55;8.20;;;3.20;;
72087;SDS011;59961;50.232;8.616;2023-04-25T01:43:20;7.90;;;3.30;;
72087;SDS011;59961;50.232;8.616;2023-04-25T01:45:46;8.60;;;3.40;;
72087;SDS011;59961;50.232;8.616;2023-04-25T01:48:12;8.53;;;4.00;;
72087;SDS011;59961;50.232;8.616;2023-04-25T01:50:38;8.07;;;4.00;;
72087;SDS011;59961;50.232;8.616;2023-04-25T01:53:03;7.17;;;3.67;;
72087;SDS011;59961;50.232;8.616;2023-04-25T01:55:29;7.68;;;3.13;;
72087;SDS011;59961;50.232;8.616;2023-04-25T01:57:54;9.80;;;4.07;;
72087;SDS011;59961;50.232;8.616;2023-04-25T02:00:19;13.97;;;4.60;;
72087;SDS011;59961;50.232;8.616;2023-04-25T02:02:44;8.10;;;3.87;;
72087;SDS011;59961;50.232;8.616;2023-04-25T02:05:10;9.00;;;3.70;;
72087;SDS011;59961;50.232;8.616;2023-04-25T02:07:35;6.67;;;3.50;;
72087;SDS011;59961;50.232;8.616;2023-04-25T02:10:00;9.63;;;3.87;;
72087;SDS011;59961;50.232;8.616;2023-04-25T02:12:25;7.73;;;3.63;;
72087;SDS011;59961;50.232;8.616;2023-04-25T02:14:51;8.40;;;3.55;;
72087;SDS011;59961;50.232;8.616;2023-04-25T02:17:16;10.20;;;4.47;;
72087;SDS011;59961;50.232;8.616;2023-04-25T02:19:41;9.27;;;3.60;;
72087;SDS011;59961;50.232;8.616;2023-04-25T02:22:07;8.00;;;4.05;;
72087;SDS011;59961;50.232;8.616;2023-04-25T02:24:32;8.13;;;4.03;;
72087;SDS011;59961;50.232;8.616;2023-04-25T02:26:58;8.98;;;3.97;;
72087;SDS011;59961;50.232;8.616;2023-04-25T02:29:23;8.87;;;3.67;;
72087;SDS011;59961;50.232;8.616;2023-04-25T02:31:48;7.83;;;3.90;;
72087;SDS011;59961;50.232;8.616;2023-04-25T02:34:14;7.50;;;3.60;;
72087;SDS011;59961;50.232;8.616;2023-04-25T02:36:39;7.68;;;3.47;;
72087;SDS011;59961;50.232;8.616;2023-04-25T02:39:04;10.80;;;4.40;;
72087;SDS011;59961;50.232;8.616;2023-04-25T02:41:29;16.10;;;4.40;;
72087;SDS011;59961;50.232;8.616;2023-04-25T02:43:55;8.10;;;4.10;;
72087;SDS011;59961;50.232;8.616;2023-04-25T02:46:20;9.10;;;3.50;;
72087;SDS011;59961;50.232;8.616;2023-04-25T02:48:46;9.18;;;4.07;;
72087;SDS011;59961;50.232;8.616;2023-04-25T02:51:11;9.43;;;3.72;;
72087;SDS011;59961;50.232;8.616;2023-04-25T02:53:37;11.27;;;4.10;;
72087;SDS011;59961;50.232;8.616;2023-04-25T02:56:02;13.23;;;4.05;;
72087;SDS011;59961;50.232;8.616;2023-04-25T02:58:27;8.03;;;4.00;;
72087;SDS011;59961;50.232;8.616;2023-04-25T03:00:53;7.60;;;3.30;;
72087;SDS011;59961;50.232;8.616;2023-04-25T03:03:18;9.23;;;3.77;;
72087;SDS011;59961;50.232;8.616;2023-04-25T03:05:46;7.90;;;4.00;;
72087;SDS011;59961;50.232;8.616;2023-04-25T03:08:11;12.47;;;3.87;;
72087;SDS011;59961;50.232;8.616;2023-04-25T03:10:38;9.30;;;3.97;;
72087;SDS011;59961;50.232;8.616;2023-04-25T03:13:03;8.77;;;3.78;;
72087;SDS011;59961;50.232;8.616;2023-04-25T03:15:28;11.73;;;4.27;;
72087;SDS011;59961;50.232;8.616;2023-04-25T03:17:53;7.75;;;3.35;;
72087;SDS011;59961;50.232;8.616;2023-04-25T03:20:19;8.73;;;4.07;;
72087;SDS011;59961;50.232;8.616;2023-04-25T03:22:44;7.77;;;3.80;;
72087;SDS011;59961;50.232;8.616;2023-04-25T03:25:09;9.80;;;3.67;;
72087;SDS011;59961;50.232;8.616;2023-04-25T03:27:35;8.30;;;3.87;;
72087;SDS011;59961;50.232;8.616;2023-04-25T03:30:00;8.32;;;4.07;;
72087;SDS011;59961;50.232;8.616;2023-04-25T03:32:25;7.53;;;3.15;;
72087;SDS011;59961;50.232;8.616;2023-04-25T03:34:51;10.00;;;3.50;;
72087;SDS011;59961;50.232;8.616;2023-04-25T03:37:16;12.67;;;3.93;;
72087;SDS011;59961;50.232;8.616;2023-04-25T03:39:41;10.68;;;4.28;;
72087;SDS011;59961;50.232;8.616;2023-04-25T03:42:07;9.82;;;3.78;;
72087;SDS011;59961;50.232;8.616;2023-04-25T03:44:32;8.57;;;3.38;;
72087;SDS011;59961;50.232;8.616;2023-04-25T03:46:57;9.40;;;3.17;;
72087;SDS011;59961;50.232;8.616;2023-04-25T03:49:22;11.77;;;3.45;;
72087;SDS011;59961;50.232;8.616;2023-04-25T03:51:47;12.15;;;4.00;;
72087;SDS011;59961;50.232;8.616;2023-04-25T03:54:12;9.10;;;3.67;;
72087;SDS011;59961;50.232;8.616;2023-04-25T03:56:38;7.90;;;2.90;;
72087;SDS011;59961;50.232;8.616;2023-04-25T03:59:03;9.85;;;3.35;;
72087;SDS011;59961;50.232;8.616;2023-04-25T04:01:28;10.03;;;3.77;;
72087;SDS011;59961;50.232;8.616;2023-04-25T04:03:53;7.67;;;3.03;;
72087;SDS011;59961;50.232;8.616;2023-04-25T04:06:18;8.03;;;3.33;;
72087;SDS011;59961;50.232;8.616;2023-04-25T04:08:45;11.32;;;3.13;;
72087;SDS011;59961;50.232;8.616;2023-04-25T04:11:10;7.17;;;3.27;;
72087;SDS011;59961;50.232;8.616;2023-04-25T04:13:35;9.07;;;3.77;;
72087;SDS011;59961;50.232;8.616;2023-04-25T04:16:01;10.18;;;3.10;;
72087;SDS011;59961;50.232;8.616;2023-04-25T04:18:26;9.97;;;4.07;;
72087;SDS011;59961;50.232;8.616;2023-04-25T04:20:51;8.20;;;3.20;;
72087;SDS011;59961;50.232;8.616;2023-04-25T04:23:16;7.60;;;3.27;;
72087;SDS011;59961;50.232;8.616;2023-04-25T04:25:42;9.77;;;3.92;;
72087;SDS011;59961;50.232;8.616;2023-04-25T04:28:07;7.07;;;2.97;;
72087;SDS011;59961;50.232;8.616;2023-04-25T04:30:32;7.90;;;3.00;;
72087;SDS011;59961;50.232;8.616;2023-04-25T04:33:01;10.40;;;3.45;;
72087;SDS011;59961;50.232;8.616;2023-04-25T04:35:26;7.60;;;3.30;;
72087;SDS011;59961;50.232;8.616;2023-04-25T04:37:51;7.33;;;3.20;;
72087;SDS011;59961;50.232;8.616;2023-04-25T04:40:17;9.52;;;2.65;;
72087;SDS011;59961;50.232;8.616;2023-04-25T04:42:42;9.60;;;3.07;;
72087;SDS011;59961;50.232;8.616;2023-04-25T04:45:08;8.68;;;3.20;;
72087;SDS011;59961;50.232;8.616;2023-04-25T04:47:33;8.97;;;3.07;;
72087;SDS011;59961;50.232;8.616;2023-04-25T04:49:59;7.83;;;3.10;;
72087;SDS011;59961;50.232;8.616;2023-04-25T04:52:24;12.63;;;3.33;;
72087;SDS011;59961;50.232;8.616;2023-04-25T04:54:49;9.23;;;3.07;;
72087;SDS011;59961;50.232;8.616;2023-04-25T04:57:14;11.65;;;3.30;;
72087;SDS011;59961;50.232;8.616;2023-04-25T04:59:41;6.97;;;2.57;;
72087;SDS011;59961;50.232;8.616;2023-04-25T05:02:06;9.13;;;3.50;;
72087;SDS011;59961;50.232;8.616;2023-04-25T05:04:31;9.13;;;3.22;;
72087;SDS011;59961;50.232;8.616;2023-04-25T05:06:56;7.95;;;3.53;;
72087;SDS011;59961;50.232;8.616;2023-04-25T05:09:21;9.02;;;2.90;;
72087;SDS011;59961;50.232;8.616;2023-04-25T05:11:50;9.18;;;3.08;;
72087;SDS011;59961;50.232;8.616;2023-04-25T05:14:15;6.97;;;3.07;;
72087;SDS011;59961;50.232;8.616;2023-04-25T05:16:42;6.45;;;2.35;;
72087;SDS011;59961;50.232;8.616;2023-04-25T05:19:07;13.97;;;3.37;;
72087;SDS011;59961;50.232;8.616;2023-04-25T05:21:32;6.67;;;2.67;;
72087;SDS011;59961;50.232;8.616;2023-04-25T05:23:57;6.10;;;2.63;;
72087;SDS011;59961;50.232;8.616;2023-04-25T05:26:22;11.93;;;3.50;;
72087;SDS011;59961;50.232;8.616;2023-04-25T05:28:50;6.57;;;3.00;;
72087;SDS011;59961;50.232;8.616;2023-04-25T05:31:16;8.18;;;2.65;;
72087;SDS011;59961;50.232;8.616;2023-04-25T05:33:41;7.37;;;2.83;;
72087;SDS011;59961;50.232;8.616;2023-04-25T05:36:06;7.63;;;2.65;;
72087;SDS011;59961;50.232;8.616;2023-04-25T05:38:33;8.03;;;2.30;;
72087;SDS011;59961;50.232;8.616;2023-04-25T05:40:58;6.00;;;2.13;;
72087;SDS011;59961;50.232;8.616;2023-04-25T05:43:23;6.43;;;2.50;;
72087;SDS011;59961;50.232;8.616;2023-04-25T05:45:49;8.03;;;2.70;;
72087;SDS011;59961;50.232;8.616;2023-04-25T05:48:14;9.97;;;2.73;;
72087;SDS011;59961;50.232;8.616;2023-04-25T05:50:39;7.90;;;2.33;;
72087;SDS011;59961;50.232;8.616;2023-04-25T05:53:05;9.10;;;2.53;;
72087;SDS011;59961;50.232;8.616;2023-04-25T05:55:36;8.87;;;2.80;;
72087;SDS011;59961;50.232;8.616;2023-04-25T05:58:01;7.85;;;2.50;;
72087;SDS011;59961;50.232;8.616;2023-04-25T06:00:26;4.57;;;2.70;;
72087;SDS011;59961;50.232;8.616;2023-04-25T06:02:51;6.43;;;2.30;;
72087;SDS011;59961;50.232;8.616;2023-04-25T06:05:16;7.63;;;2.28;;
72087;SDS011;59961;50.232;8.616;2023-04-25T06:07:42;11.93;;;3.57;;
72087;SDS011;59961;50.232;8.616;2023-04-25T06:10:07;8.43;;;2.60;;
72087;SDS011;59961;50.232;8.616;2023-04-25T06:12:32;6.30;;;2.73;;
72087;SDS011;59961;50.232;8.616;2023-04-25T06:14:58;6.50;;;1.83;;
72087;SDS011;59961;50.232;8.616;2023-04-25T06:17:23;7.53;;;1.50;;
72087;SDS011;59961;50.232;8.616;2023-04-25T06:19:48;4.90;;;2.10;;
72087;SDS011;59961;50.232;8.616;2023-04-25T06:22:13;6.50;;;2.10;;
72087;SDS011;59961;50.232;8.616;2023-04-25T06:24:38;3.67;;;2.05;;
72087;SDS011;59961;50.232;8.616;2023-04-25T06:27:04;6.23;;;2.30;;
72087;SDS011;59961;50.232;8.616;2023-04-25T06:29:29;7.75;;;2.15;;
72087;SDS011;59961;50.232;8.616;2023-04-25T06:31:54;6.13;;;2.22;;
72087;SDS011;59961;50.232;8.616;2023-04-25T06:34:19;6.50;;;2.67;;
72087;SDS011;59961;50.232;8.616;2023-04-25T06:36:45;5.20;;;2.00;;
72087;SDS011;59961;50.232;8.616;2023-04-25T06:39:10;6.27;;;1.93;;
72087;SDS011;59961;50.232;8.616;2023-04-25T06:41:36;5.60;;;2.17;;
72087;SDS011;59961;50.232;8.616;2023-04-25T06:44:01;6.80;;;2.20;;
72087;SDS011;59961;50.232;8.616;2023-04-25T06:46:26;6.47;;;2.13;;
72087;SDS011;59961;50.232;8.616;2023-04-25T06:48:52;4.83;;;1.67;;
72087;SDS011;59961;50.232;8.616;2023-04-25T06:51:17;7.88;;;2.30;;
72087;SDS011;59961;50.232;8.616;2023-04-25T06:53:42;5.53;;;2.10;;
72087;SDS011;59961;50.232;8.616;2023-04-25T06:56:07;6.13;;;1.80;;
72087;SDS011;59961;50.232;8.616;2023-04-25T06:58:32;6.33;;;2.00;;
72087;SDS011;59961;50.232;8.616;2023-04-25T07:00:58;5.07;;;2.13;;
72087;SDS011;59961;50.232;8.616;2023-04-25T07:03:23;9.18;;;2.40;;
72087;SDS011;59961;50.232;8.616;2023-04-25T07:05:48;4.60;;;1.87;;
72087;SDS011;59961;50.232;8.616;2023-04-25T07:08:14;6.03;;;2.60;;
72087;SDS011;59961;50.232;8.616;2023-04-25T07:10:39;9.87;;;2.40;;
72087;SDS011;59961;50.232;8.616;2023-04-25T07:13:05;6.57;;;2.15;;
72087;SDS011;59961;50.232;8.616;2023-04-25T07:15:30;5.93;;;2.67;;
72087;SDS011;59961;50.232;8.616;2023-04-25T07:17:55;5.57;;;2.10;;
72087;SDS011;59961;50.232;8.616;2023-04-25T07:20:20;6.30;;;2.20;;
72087;SDS011;59961;50.232;8.616;2023-04-25T07:22:46;8.07;;;3.00;;
72087;SDS011;59961;50.232;8.616;2023-04-25T07:25:12;9.90;;;3.10;;
72087;SDS011;59961;50.232;8.616;2023-04-25T07:27:37;7.20;;;2.45;;
72087;SDS011;59961;50.232;8.616;2023-04-25T07:30:03;6.73;;;2.10;;
72087;SDS011;59961;50.232;8.616;2023-04-25T07:32:29;9.10;;;3.15;;
72087;SDS011;59961;50.232;8.616;2023-04-25T07:34:54;4.47;;;2.20;;
72087;SDS011;59961;50.232;8.616;2023-04-25T07:37:19;6.30;;;2.60;;
72087;SDS011;59961;50.232;8.616;2023-04-25T07:39:45;7.23;;;3.00;;
72087;SDS011;59961;50.232;8.616;2023-04-25T07:42:14;7.80;;;3.35;;
72087;SDS011;59961;50.232;8.616;2023-04-25T07:44:39;7.45;;;2.63;;
72087;SDS011;59961;50.232;8.616;2023-04-25T07:47:08;14.60;;;3.43;;
72087;SDS011;59961;50.232;8.616;2023-04-25T07:49:34;10.98;;;3.65;;
72087;SDS011;59961;50.232;8.616;2023-04-25T07:52:03;8.60;;;3.65;;
72087;SDS011;59961;50.232;8.616;2023-04-25T07:54:28;9.87;;;3.20;;
72087;SDS011;59961;50.232;8.616;2023-04-25T07:56:53;8.13;;;3.00;;
72087;SDS011;59961;50.232;8.616;2023-04-25T07:59:18;7.43;;;3.33;;
72087;SDS011;59961;50.232;8.616;2023-04-25T08:01:44;6.47;;;2.85;;
72087;SDS011;59961;50.232;8.616;2023-04-25T08:04:09;6.65;;;2.85;;
72087;SDS011;59961;50.232;8.616;2023-04-25T08:06:34;8.97;;;2.97;;
72087;SDS011;59961;50.232;8.616;2023-04-25T08:09:00;9.57;;;3.07;;
72087;SDS011;59961;50.232;8.616;2023-04-25T08:11:25;8.13;;;3.30;;
72087;SDS011;59961;50.232;8.616;2023-04-25T08:13:50;9.53;;;3.17;;
72087;SDS011;59961;50.232;8.616;2023-04-25T08:16:15;7.77;;;3.40;;
72087;SDS011;59961;50.232;8.616;2023-04-25T08:18:41;10.90;;;3.30;;
72087;SDS011;59961;50.232;8.616;2023-04-25T08:21:06;8.07;;;2.90;;
72087;SDS011;59961;50.232;8.616;2023-04-25T08:23:34;8.07;;;3.38;;
72087;SDS011;59961;50.232;8.616;2023-04-25T08:25:59;6.27;;;3.17;;
72087;SDS011;59961;50.232;8.616;2023-04-25T08:28:25;9.27;;;3.20;;
72087;SDS011;59961;50.232;8.616;2023-04-25T08:30:50;5.90;;;3.30;;
72087;SDS011;59961;50.232;8.616;2023-04-25T08:33:15;10.13;;;3.33;;
72087;SDS011;59961;50.232;8.616;2023-04-25T08:35:41;8.00;;;2.97;;
72087;SDS011;59961;50.232;8.616;2023-04-25T08:38:06;8.63;;;3.40;;
72087;SDS011;59961;50.232;8.616;2023-04-25T08:40:31;9.37;;;3.00;;
72087;SDS011;59961;50.232;8.616;2023-04-25T08:43:00;8.93;;;3.53;;
72087;SDS011;59961;50.232;8.616;2023-04-25T08:45:26;6.63;;;3.50;;
72087;SDS011;59961;50.232;8.616;2023-04-25T08:47:53;9.00;;;3.72;;
72087;SDS011;59961;50.232;8.616;2023-04-25T08:50:18;6.73;;;3.40;;
72087;SDS011;59961;50.232;8.616;2023-04-25T08:52:47;9.55;;;3.40;;
72087;SDS011;59961;50.232;8.616;2023-04-25T08:55:13;7.50;;;3.42;;
72087;SDS011;59961;50.232;8.616;2023-04-25T08:57:39;8.50;;;3.65;;
72087;SDS011;59961;50.232;8.616;2023-04-25T09:00:06;8.13;;;3.70;;
72087;SDS011;59961;50.232;8.616;2023-04-25T09:02:33;6.50;;;2.90;;
72087;SDS011;59961;50.232;8.616;2023-04-25T09:04:58;7.90;;;3.77;;
72087;SDS011;59961;50.232;8.616;2023-04-25T09:07:24;8.00;;;3.50;;
72087;SDS011;59961;50.232;8.616;2023-04-25T09:09:50;12.30;;;3.95;;
72087;SDS011;59961;50.232;8.616;2023-04-25T09:12:16;8.43;;;3.80;;
72087;SDS011;59961;50.232;8.616;2023-04-25T09:14:42;8.57;;;3.55;;
72087;SDS011;59961;50.232;8.616;2023-04-25T09:17:25;8.03;;;3.27;;
72087;SDS011;59961;50.232;8.616;2023-04-25T09:19:50;9.52;;;3.67;;
72087;SDS011;59961;50.232;8.616;2023-04-25T09:22:16;8.85;;;3.13;;
72087;SDS011;59961;50.232;8.616;2023-04-25T09:24:43;7.47;;;3.40;;
72087;SDS011;59961;50.232;8.616;2023-04-25T09:27:11;9.90;;;3.35;;
72087;SDS011;59961;50.232;8.616;2023-04-25T09:29:37;8.07;;;2.85;;
72087;SDS011;59961;50.232;8.616;2023-04-25T09:34:40;8.83;;;3.50;;
72087;SDS011;59961;50.232;8.616;2023-04-25T09:37:07;8.60;;;3.60;;
72087;SDS011;59961;50.232;8.616;2023-04-25T09:39:32;11.38;;;3.70;;
72087;SDS011;59961;50.232;8.616;2023-04-25T09:41:58;7.93;;;3.53;;
72087;SDS011;59961;50.232;8.616;2023-04-25T09:44:24;8.32;;;2.90;;
72087;SDS011;59961;50.232;8.616;2023-04-25T09:46:50;9.17;;;3.60;;
72087;SDS011;59961;50.232;8.616;2023-04-25T09:49:19;10.13;;;3.15;;
72087;SDS011;59961;50.232;8.616;2023-04-25T09:51:53;8.00;;;3.20;;
72087;SDS011;59961;50.232;8.616;2023-04-25T09:54:18;11.75;;;3.65;;
72087;SDS011;59961;50.232;8.616;2023-04-25T09:56:43;12.57;;;3.78;;
72087;SDS011;59961;50.232;8.616;2023-04-25T09:59:12;11.75;;;3.85;;
72087;SDS011;59961;50.232;8.616;2023-04-25T10:01:38;12.50;;;3.80;;
72087;SDS011;59961;50.232;8.616;2023-04-25T10:04:04;7.70;;;3.03;;
72087;SDS011;59961;50.232;8.616;2023-04-25T10:06:31;12.37;;;3.60;;
72087;SDS011;59961;50.232;8.616;2023-04-25T10:08:58;17.23;;;4.50;;
72087;SDS011;59961;50.232;8.616;2023-04-25T10:11:23;8.07;;;3.30;;
72087;SDS011;59961;50.232;8.616;2023-04-25T10:13:49;16.13;;;4.05;;
72087;SDS011;59961;50.232;8.616;2023-04-25T10:16:15;13.60;;;3.50;;
72087;SDS011;59961;50.232;8.616;2023-04-25T10:18:41;5.97;;;2.67;;
72087;SDS011;59961;50.232;8.616;2023-04-25T10:21:07;6.93;;;2.53;;
72087;SDS011;59961;50.232;8.616;2023-04-25T10:23:32;6.75;;;2.50;;
72087;SDS011;59961;50.232;8.616;2023-04-25T10:26:01;7.60;;;2.60;;
72087;SDS011;59961;50.232;8.616;2023-04-25T10:28:27;7.07;;;2.67;;
72087;SDS011;59961;50.232;8.616;2023-04-25T10:31:00;6.70;;;2.70;;
72087;SDS011;59961;50.232;8.616;2023-04-25T10:33:32;5.32;;;2.13;;
72087;SDS011;59961;50.232;8.616;2023-04-25T10:35:58;10.60;;;3.15;;
72087;SDS011;59961;50.232;8.616;2023-04-25T10:38:24;6.77;;;2.50;;
72087;SDS011;59961;50.232;8.616;2023-04-25T10:41:03;11.25;;;3.22;;
72087;SDS011;59961;50.232;8.616;2023-04-25T10:43:36;14.98;;;3.53;;
72087;SDS011;59961;50.232;8.616;2023-04-25T10:46:23;10.45;;;2.47;;
72087;SDS011;59961;50.232;8.616;2023-04-25T10:48:49;5.13;;;2.23;;
72087;SDS011;59961;50.232;8.616;2023-04-25T10:51:16;5.82;;;1.92;;
72087;SDS011;59961;50.232;8.616;2023-04-25T10:53:43;5.03;;;2.08;;
72087;SDS011;59961;50.232;8.616;2023-04-25T10:58:41;6.53;;;1.90;;
72087;SDS011;59961;50.232;8.616;2023-04-25T11:01:06;4.43;;;1.90;;
72087;SDS011;59961;50.232;8.616;2023-04-25T11:03:31;5.85;;;2.25;;
72087;SDS011;59961;50.232;8.616;2023-04-25T11:05:57;4.57;;;2.20;;
72087;SDS011;59961;50.232;8.616;2023-04-25T11:08:29;13.40;;;3.15;;
72087;SDS011;59961;50.232;8.616;2023-04-25T11:11:01;9.88;;;2.90;;
72087;SDS011;59961;50.232;8.616;2023-04-25T11:13:29;7.03;;;2.03;;
72087;SDS011;59961;50.232;8.616;2023-04-25T11:15:54;5.13;;;2.03;;
72087;SDS011;59961;50.232;8.616;2023-04-25T11:18:19;4.10;;;2.20;;
72087;SDS011;59961;50.232;8.616;2023-04-25T11:20:46;4.43;;;2.15;;
72087;SDS011;59961;50.232;8.616;2023-04-25T11:23:12;3.17;;;1.30;;
72087;SDS011;59961;50.232;8.616;2023-04-25T11:25:37;5.73;;;1.80;;
72087;SDS011;59961;50.232;8.616;2023-04-25T11:28:03;5.60;;;1.90;;
72087;SDS011;59961;50.232;8.616;2023-04-25T11:30:28;4.57;;;1.80;;
72087;SDS011;59961;50.232;8.616;2023-04-25T11:32:55;4.40;;;2.10;;
72087;SDS011;59961;50.232;8.616;2023-04-25T11:35:20;5.33;;;1.73;;
72087;SDS011;59961;50.232;8.616;2023-04-25T11:37:47;8.60;;;2.25;;
72087;SDS011;59961;50.232;8.616;2023-04-25T11:40:13;9.60;;;2.20;;
72087;SDS011;59961;50.232;8.616;2023-04-25T11:42:47;5.63;;;2.07;;
72087;SDS011;59961;50.232;8.616;2023-04-25T11:45:13;6.10;;;2.03;;
72087;SDS011;59961;50.232;8.616;2023-04-25T11:47:38;4.30;;;2.03;;
72087;SDS011;59961;50.232;8.616;2023-04-25T11:50:04;6.97;;;2.30;;
72087;SDS011;59961;50.232;8.616;2023-04-25T11:52:37;4.95;;;1.98;;
72087;SDS011;59961;50.232;8.616;2023-04-25T11:55:35;5.13;;;1.90;;
72087;SDS011;59961;50.232;8.616;2023-04-25T11:57:54;6.20;;;2.58;;
72087;SDS011;59961;50.232;8.616;2023-04-25T12:00:21;11.23;;;2.38;;
72087;SDS011;59961;50.232;8.616;2023-04-25T12:02:47;7.13;;;2.67;;
72087;SDS011;59961;50.232;8.616;2023-04-25T12:05:13;6.45;;;2.30;;
72087;SDS011;59961;50.232;8.616;2023-04-25T12:07:39;6.55;;;2.75;;
72087;SDS011;59961;50.232;8.616;2023-04-25T12:10:07;7.25;;;2.38;;
72087;SDS011;59961;50.232;8.616;2023-04-25T12:12:33;5.80;;;2.57;;
72087;SDS011;59961;50.232;8.616;2023-04-25T12:15:07;8.98;;;2.83;;
72087;SDS011;59961;50.232;8.616;2023-04-25T12:17:33;7.30;;;2.40;;
72087;SDS011;59961;50.232;8.616;2023-04-25T12:19:58;6.50;;;2.00;;
72087;SDS011;59961;50.232;8.616;2023-04-25T12:22:24;6.43;;;2.17;;
72087;SDS011;59961;50.232;8.616;2023-04-25T12:24:49;6.77;;;2.40;;
72087;SDS011;59961;50.232;8.616;2023-04-25T12:27:15;9.00;;;3.00;;
72087;SDS011;59961;50.232;8.616;2023-04-25T12:29:51;10.37;;;2.93;;
72087;SDS011;59961;50.232;8.616;2023-04-25T12:32:16;10.82;;;2.72;;
72087;SDS011;59961;50.232;8.616;2023-04-25T12:34:42;9.00;;;3.10;;
72087;SDS011;59961;50.232;8.616;2023-04-25T12:37:07;5.45;;;2.10;;
72087;SDS011;59961;50.232;8.616;2023-04-25T12:39:34;7.57;;;2.40;;
72087;SDS011;59961;50.232;8.616;2023-04-25T12:41:59;7.40;;;2.30;;
72087;SDS011;59961;50.232;8.616;2023-04-25T12:44:24;9.02;;;2.78;;
72087;SDS011;59961;50.232;8.616;2023-04-25T12:46:49;8.20;;;2.80;;
72087;SDS011;59961;50.232;8.616;2023-04-25T12:49:15;10.27;;;2.90;;
72087;SDS011;59961;50.232;8.616;2023-04-25T12:51:40;6.60;;;2.67;;
72087;SDS011;59961;50.232;8.616;2023-04-25T12:54:06;6.45;;;2.40;;
72087;SDS011;59961;50.232;8.616;2023-04-25T12:56:35;9.97;;;2.67;;
72087;SDS011;59961;50.232;8.616;2023-04-25T12:59:00;7.70;;;2.88;;
72087;SDS011;59961;50.232;8.616;2023-04-25T13:01:27;6.65;;;2.28;;
72087;SDS011;59961;50.232;8.616;2023-04-25T13:03:52;5.87;;;2.47;;
72087;SDS011;59961;50.232;8.616;2023-04-25T13:06:18;5.90;;;2.67;;
72087;SDS011;59961;50.232;8.616;2023-04-25T13:08:44;10.05;;;2.95;;
72087;SDS011;59961;50.232;8.616;2023-04-25T13:11:09;6.27;;;2.30;;
72087;SDS011;59961;50.232;8.616;2023-04-25T13:13:35;5.77;;;2.13;;
72087;SDS011;59961;50.232;8.616;2023-04-25T13:16:03;5.43;;;2.30;;
72087;SDS011;59961;50.232;8.616;2023-04-25T13:18:29;5.70;;;2.58;;
72087;SDS011;59961;50.232;8.616;2023-04-25T13:20:55;9.70;;;2.92;;
72087;SDS011;59961;50.232;8.616;2023-04-25T13:23:21;5.67;;;2.73;;
72087;SDS011;59961;50.232;8.616;2023-04-25T13:25:46;4.37;;;2.10;;
72087;SDS011;59961;50.232;8.616;2023-04-25T13:28:12;9.53;;;2.97;;
72087;SDS011;59961;50.232;8.616;2023-04-25T13:30:37;6.73;;;2.37;;
72087;SDS011;59961;50.232;8.616;2023-04-25T13:33:02;5.37;;;2.20;;
72087;SDS011;59961;50.232;8.616;2023-04-25T13:35:28;6.70;;;2.53;;
72087;SDS011;59961;50.232;8.616;2023-04-25T13:37:53;5.25;;;2.47;;
72087;SDS011;59961;50.232;8.616;2023-04-25T13:40:18;5.50;;;2.10;;
72087;SDS011;59961;50.232;8.616;2023-04-25T13:42:43;6.10;;;2.57;;
72087;SDS011;59961;50.232;8.616;2023-04-25T13:45:10;4.90;;;2.30;;
72087;SDS011;59961;50.232;8.616;2023-04-25T13:47:35;5.90;;;2.30;;
72087;SDS011;59961;50.232;8.616;2023-04-25T13:50:00;6.57;;;2.67;;
72087;SDS011;59961;50.232;8.616;2023-04-25T13:52:27;7.20;;;2.47;;
72087;SDS011;59961;50.232;8.616;2023-04-25T13:54:53;8.57;;;2.23;;
72087;SDS011;59961;50.232;8.616;2023-04-25T13:57:18;7.10;;;1.95;;
72087;SDS011;59961;50.232;8.616;2023-04-25T13:59:43;4.97;;;2.00;;
72087;SDS011;59961;50.232;8.616;2023-04-25T14:02:08;6.35;;;2.15;;
72087;SDS011;59961;50.232;8.616;2023-04-25T14:04:33;6.13;;;2.07;;
72087;SDS011;59961;50.232;8.616;2023-04-25T14:06:59;3.83;;;1.90;;
72087;SDS011;59961;50.232;8.616;2023-04-25T14:09:24;5.47;;;2.13;;
72087;SDS011;59961;50.232;8.616;2023-04-25T14:11:53;4.45;;;2.10;;
72087;SDS011;59961;50.232;8.616;2023-04-25T14:14:19;4.80;;;2.38;;
72087;SDS011;59961;50.232;8.616;2023-04-25T14:16:44;3.60;;;2.00;;
72087;SDS011;59961;50.232;8.616;2023-04-25T14:19:10;5.03;;;2.10;;
72087;SDS011;59961;50.232;8.616;2023-04-25T14:21:35;7.07;;;1.88;;
72087;SDS011;59961;50.232;8.616;2023-04-25T14:24:00;6.33;;;1.97;;
72087;SDS011;59961;50.232;8.616;2023-04-25T14:26:26;5.10;;;1.67;;
72087;SDS011;59961;50.232;8.616;2023-04-25T14:28:51;6.22;;;2.05;;
72087;SDS011;59961;50.232;8.616;2023-04-25T14:31:16;5.23;;;2.00;;
72087;SDS011;59961;50.232;8.616;2023-04-25T14:33:41;3.53;;;1.77;;
72087;SDS011;59961;50.232;8.616;2023-04-25T14:36:09;4.93;;;1.80;;
72087;SDS011;59961;50.232;8.616;2023-04-25T14:38:35;4.20;;;1.63;;
72087;SDS011;59961;50.232;8.616;2023-04-25T14:41:00;6.13;;;1.70;;
72087;SDS011;59961;50.232;8.616;2023-04-25T14:43:25;4.03;;;1.93;;